Terminal Aerodrome Forecast
Issued by NWS

Home | Current Version | Previous Version | Text Only | Print | Product List | Glossary Off
Versions: 1 2 3 4 5 6 7 8 9 10 11 12 13 14 15 16 17

000
FTUS45 KGGW 270525
TAFSDY
TAF
KSDY 270525Z 2706/2806 34005KT P6SM BKN040
     FM270900 34004KT P6SM SCT020
     FM271500 01005KT P6SM BKN035
     FM271800 05006KT P6SM BKN050
      AMD LTD TO CLD VIS AND WIND=

USA.gov is the U.S. government's official web portal to all federal, state and local government web resources and services.